createdAt,value
2022-10-13T00:01:34.963Z,11.14
2022-10-13T00:04:04.944Z,11.16
2022-10-13T00:06:34.915Z,11.17
2022-10-13T00:09:04.690Z,11.17
2022-10-13T00:11:34.423Z,11.20
2022-10-13T00:14:05.524Z,11.24
2022-10-13T00:16:38.392Z,11.27
2022-10-13T00:19:08.224Z,11.30
2022-10-13T00:21:40.461Z,11.30
2022-10-13T00:24:12.283Z,11.31
2022-10-13T00:26:42.358Z,11.33
2022-10-13T00:29:13.511Z,11.32
2022-10-13T00:31:43.116Z,11.30
2022-10-13T00:34:12.816Z,11.32
2022-10-13T00:36:42.629Z,11.37
2022-10-13T00:39:12.490Z,11.39
2022-10-13T00:41:42.387Z,11.36
2022-10-13T00:44:50.966Z,11.32
2022-10-13T00:47:22.002Z,11.31
2022-10-13T00:49:53.439Z,11.31
2022-10-13T00:52:26.428Z,11.30
2022-10-13T00:54:57.116Z,11.30
2022-10-13T00:57:28.403Z,11.30
2022-10-13T00:59:59.409Z,11.29
2022-10-13T01:02:33.163Z,11.28
2022-10-13T01:05:07.670Z,11.28
2022-10-13T01:07:37.453Z,11.30
2022-10-13T01:10:06.918Z,11.31
2022-10-13T01:12:58.160Z,11.34
2022-10-13T01:15:50.507Z,11.36
2022-10-13T01:19:02.845Z,11.36
2022-10-13T01:21:47.609Z,11.37
2022-10-13T01:24:50.554Z,11.40
2022-10-13T01:27:35.701Z,11.42
2022-10-13T01:30:20.577Z,11.46
2022-10-13T01:33:10.044Z,11.51
2022-10-13T01:36:03.779Z,11.56
2022-10-13T01:38:35.157Z,11.59
2022-10-13T01:41:28.372Z,11.64
2022-10-13T01:44:16.509Z,11.70
2022-10-13T01:46:55.468Z,11.73
2022-10-13T01:49:31.642Z,11.76
2022-10-13T01:52:07.054Z,11.76
2022-10-13T01:54:36.789Z,11.79
2022-10-13T01:57:32.335Z,11.80
2022-10-13T02:00:20.227Z,11.75
2022-10-13T02:03:33.037Z,11.70
2022-10-13T02:06:21.837Z,11.68
2022-10-13T02:09:19.669Z,11.69
2022-10-13T02:11:51.994Z,11.72
2022-10-13T02:14:28.154Z,11.71
2022-10-13T02:17:03.430Z,11.75
2022-10-13T02:19:39.313Z,11.76
2022-10-13T02:22:12.084Z,11.75
2022-10-13T02:24:42.311Z,11.76
2022-10-13T02:27:13.312Z,11.70
2022-10-13T02:29:57.383Z,11.59
2022-10-13T02:32:30.074Z,11.59
2022-10-13T02:34:59.950Z,11.58
2022-10-13T02:37:29.931Z,11.58
2022-10-13T02:39:59.810Z,11.61
2022-10-13T02:42:29.840Z,11.66
2022-10-13T02:45:02.007Z,11.72
2022-10-13T02:47:32.062Z,11.77
2022-10-13T02:50:02.451Z,11.83
2022-10-13T02:52:32.615Z,11.87
2022-10-13T02:55:01.290Z,11.88
2022-10-13T02:57:30.858Z,11.91
2022-10-13T03:00:02.158Z,11.92
2022-10-13T03:02:33.387Z,11.94
2022-10-13T03:05:01.992Z,11.97
2022-10-13T03:07:31.831Z,11.99
2022-10-13T03:10:02.050Z,12.00
2022-10-13T03:12:31.936Z,12.00
2022-10-13T03:15:01.621Z,12.00
2022-10-13T03:17:31.594Z,12.00
2022-10-13T03:20:01.782Z,12.02
2022-10-13T03:22:34.414Z,12.02
2022-10-13T03:25:04.634Z,12.02
2022-10-13T03:27:35.497Z,12.06
2022-10-13T03:30:05.541Z,12.11
2022-10-13T03:32:35.596Z,12.15
2022-10-13T03:35:06.811Z,12.14
2022-10-13T03:37:36.508Z,12.16
2022-10-13T03:40:06.902Z,12.21
2022-10-13T03:42:40.093Z,12.25
2022-10-13T03:45:11.846Z,12.28
2022-10-13T03:47:42.044Z,12.32
2022-10-13T03:50:11.967Z,12.36
2022-10-13T03:52:43.841Z,12.37
2022-10-13T03:55:13.803Z,12.32
2022-10-13T03:57:43.756Z,12.28
2022-10-13T04:00:13.487Z,12.30
2022-10-13T04:02:43.463Z,12.34
2022-10-13T04:05:12.929Z,12.38
2022-10-13T04:07:42.936Z,12.41
2022-10-13T04:10:21.453Z,12.44
2022-10-13T04:12:52.557Z,12.46
2022-10-13T04:15:21.059Z,12.48
2022-10-13T04:17:50.963Z,12.44
2022-10-13T04:20:20.843Z,12.37
2022-10-13T04:22:50.775Z,12.26
2022-10-13T04:25:20.470Z,12.10
2022-10-13T04:27:50.742Z,12.01
2022-10-13T04:30:20.574Z,12.02
2022-10-13T04:32:50.641Z,12.09
2022-10-13T04:35:20.372Z,12.14
2022-10-13T04:37:48.965Z,12.20
2022-10-13T04:40:18.687Z,12.26
2022-10-13T04:42:48.172Z,12.30
2022-10-13T04:45:18.398Z,12.33
2022-10-13T04:47:51.716Z,12.37
2022-10-13T04:50:24.673Z,12.42
2022-10-13T04:53:01.126Z,12.45
2022-10-13T04:55:30.943Z,12.47
2022-10-13T04:57:59.349Z,12.46
2022-10-13T05:00:29.180Z,12.43
2022-10-13T05:02:58.975Z,12.44
2022-10-13T05:05:31.009Z,12.45
2022-10-13T05:08:00.689Z,12.46
2022-10-13T05:10:34.565Z,12.45
2022-10-13T05:13:04.987Z,12.46
2022-10-13T05:15:34.552Z,12.47
2022-10-13T05:18:04.243Z,12.48
2022-10-13T05:20:34.020Z,12.47
2022-10-13T05:23:03.615Z,12.45
2022-10-13T05:25:35.465Z,12.44
2022-10-13T05:28:08.839Z,12.46
2022-10-13T05:30:38.842Z,12.51
2022-10-13T05:33:09.499Z,12.56
2022-10-13T05:35:41.362Z,12.59
2022-10-13T05:38:11.667Z,12.61
2022-10-13T05:40:41.164Z,12.60
2022-10-13T05:43:10.774Z,12.60
2022-10-13T05:45:41.260Z,12.63
2022-10-13T05:48:10.666Z,12.66
2022-10-13T05:50:41.621Z,12.68
2022-10-13T05:53:11.603Z,12.69
2022-10-13T05:55:41.302Z,12.71
2022-10-13T05:58:10.746Z,12.72
2022-10-13T06:00:43.274Z,12.73
2022-10-13T06:03:21.555Z,12.73
2022-10-13T06:05:50.987Z,12.72
2022-10-13T06:08:20.543Z,12.65
2022-10-13T06:10:54.673Z,12.60
2022-10-13T06:13:25.586Z,12.59
2022-10-13T06:15:55.468Z,12.60
2022-10-13T06:18:25.532Z,12.63
2022-10-13T06:20:55.646Z,12.66
2022-10-13T06:23:25.613Z,12.68
2022-10-13T06:25:55.267Z,12.69
2022-10-13T06:28:25.237Z,12.72
2022-10-13T06:30:57.180Z,12.75
2022-10-13T06:33:26.562Z,12.79
2022-10-13T06:35:56.610Z,12.84
2022-10-13T06:38:26.671Z,12.89
2022-10-13T06:41:01.263Z,12.93
2022-10-13T06:43:39.643Z,12.97
2022-10-13T06:46:13.414Z,13.00
2022-10-13T06:48:43.472Z,13.02
2022-10-13T06:51:13.376Z,13.02
2022-10-13T06:53:42.890Z,13.01
2022-10-13T06:56:14.727Z,13.03
2022-10-13T06:58:48.661Z,13.08
2022-10-13T07:01:18.418Z,13.10
2022-10-13T07:03:51.953Z,13.11
2022-10-13T07:06:24.380Z,13.16
2022-10-13T07:08:56.726Z,13.22
2022-10-13T07:11:27.287Z,13.28
2022-10-13T07:13:59.141Z,13.29
2022-10-13T07:16:29.448Z,13.29
2022-10-13T07:18:59.417Z,13.29
2022-10-13T07:21:29.510Z,13.29
2022-10-13T07:23:59.474Z,13.32
2022-10-13T07:26:32.926Z,13.33
2022-10-13T07:29:03.566Z,13.32
2022-10-13T07:31:33.205Z,13.33
2022-10-13T07:34:05.240Z,13.34
2022-10-13T07:36:35.903Z,13.37
2022-10-13T07:39:05.534Z,13.40
2022-10-13T07:41:34.568Z,13.44
2022-10-13T07:44:05.351Z,13.45
2022-10-13T07:46:35.348Z,13.44
2022-10-13T07:49:05.539Z,13.41
2022-10-13T07:51:35.688Z,13.40
2022-10-13T07:54:05.767Z,13.38
2022-10-13T07:56:36.402Z,13.35
2022-10-13T07:59:07.477Z,13.33
2022-10-13T08:01:38.199Z,13.30
2022-10-13T08:04:08.232Z,13.30
2022-10-13T08:06:38.327Z,13.29
2022-10-13T08:09:11.689Z,13.29
2022-10-13T08:11:41.048Z,13.29
2022-10-13T08:14:12.584Z,13.31
2022-10-13T08:16:48.729Z,13.33
2022-10-13T08:19:22.673Z,13.36
2022-10-13T08:21:58.284Z,13.39
2022-10-13T08:24:28.932Z,13.43
2022-10-13T08:26:58.796Z,13.44
2022-10-13T08:29:27.364Z,13.44
2022-10-13T08:31:59.949Z,13.40
2022-10-13T08:34:29.779Z,13.38
2022-10-13T08:37:00.626Z,13.39
2022-10-13T08:39:32.160Z,13.36
2022-10-13T08:42:02.114Z,13.37
2022-10-13T08:45:16.154Z,13.40
2022-10-13T08:47:49.377Z,13.45
2022-10-13T08:50:29.122Z,13.53
2022-10-13T08:53:11.697Z,13.58
2022-10-13T08:55:52.711Z,13.63
2022-10-13T08:58:27.985Z,13.67
2022-10-13T09:01:10.302Z,13.70
2022-10-13T09:04:20.890Z,13.76
2022-10-13T09:06:56.392Z,13.86
2022-10-13T09:09:28.249Z,13.91
2022-10-13T09:11:59.299Z,14.00
2022-10-13T09:14:33.021Z,14.07
2022-10-13T09:17:24.038Z,14.14
2022-10-13T09:20:04.280Z,14.20
2022-10-13T09:22:40.981Z,14.25
2022-10-13T09:25:21.377Z,14.29
2022-10-13T09:28:01.023Z,14.28
2022-10-13T09:30:40.400Z,14.31
2022-10-13T09:33:09.226Z,14.33
2022-10-13T09:35:45.208Z,14.36
2022-10-13T09:38:23.251Z,14.39
2022-10-13T09:41:11.232Z,14.40
2022-10-13T09:43:51.369Z,14.43
2022-10-13T09:46:32.328Z,14.45
2022-10-13T09:49:29.941Z,14.50
2022-10-13T09:52:08.253Z,14.56
2022-10-13T09:54:39.500Z,14.60
2022-10-13T09:57:13.077Z,14.63
2022-10-13T09:59:50.179Z,14.64
2022-10-13T10:02:35.287Z,14.67
2022-10-13T10:05:20.824Z,14.72
2022-10-13T10:07:53.043Z,14.77
2022-10-13T10:10:37.437Z,14.81
2022-10-13T10:13:14.345Z,14.88
2022-10-13T10:15:56.153Z,14.96
2022-10-13T10:18:45.957Z,15.04
2022-10-13T10:21:17.445Z,15.11
2022-10-13T10:23:54.476Z,15.17
2022-10-13T10:26:53.076Z,15.25
2022-10-13T10:29:44.825Z,15.31
2022-10-13T10:32:30.260Z,15.36
2022-10-13T10:35:38.070Z,15.44
2022-10-13T10:38:22.798Z,15.55
2022-10-13T10:41:08.126Z,15.66
2022-10-13T10:44:03.132Z,15.74
2022-10-13T10:46:37.310Z,15.84
2022-10-13T10:49:20.859Z,15.91
2022-10-13T10:51:51.042Z,15.99
2022-10-13T10:54:31.297Z,16.10
2022-10-13T10:57:51.894Z,16.22
2022-10-13T11:00:22.689Z,16.28
2022-10-13T11:02:57.207Z,16.25
2022-10-13T11:06:05.717Z,16.24
2022-10-13T11:08:41.695Z,16.28
2022-10-13T11:11:29.319Z,16.28
2022-10-13T11:14:03.772Z,16.29
2022-10-13T11:16:41.137Z,16.32
2022-10-13T11:19:25.242Z,16.39
2022-10-13T11:21:56.155Z,16.50
2022-10-13T11:24:39.677Z,16.64
2022-10-13T11:27:17.647Z,16.84
2022-10-13T11:29:49.368Z,16.86
2022-10-13T11:32:30.843Z,16.81
2022-10-13T11:35:05.791Z,16.74
2022-10-13T11:38:07.969Z,16.68
2022-10-13T11:40:59.874Z,16.69
2022-10-13T11:43:46.955Z,16.73
2022-10-13T11:46:46.230Z,16.69
2022-10-13T11:49:26.535Z,16.64
2022-10-13T11:52:37.074Z,16.72
2022-10-13T11:55:18.552Z,16.78
2022-10-13T11:57:51.294Z,16.76
2022-10-13T12:00:21.137Z,16.68
2022-10-13T12:02:53.629Z,16.62
2022-10-13T12:05:27.309Z,16.60
2022-10-13T12:08:05.095Z,16.53
2022-10-13T12:10:36.629Z,16.47
2022-10-13T12:13:20.622Z,16.45
2022-10-13T12:16:04.219Z,16.51
2022-10-13T12:18:40.033Z,16.63
2022-10-13T12:21:21.713Z,16.79
2022-10-13T12:24:08.939Z,16.88
2022-10-13T12:26:38.553Z,16.90
2022-10-13T12:29:14.516Z,16.90
2022-10-13T12:31:48.067Z,16.94
2022-10-13T12:34:23.730Z,16.97
2022-10-13T12:37:02.759Z,17.03
2022-10-13T12:39:35.560Z,17.14
2022-10-13T12:42:07.224Z,17.27
2022-10-13T12:44:40.393Z,17.48
2022-10-13T12:47:45.234Z,17.54
2022-10-13T12:50:42.483Z,17.52
2022-10-13T12:53:17.281Z,17.46
2022-10-13T12:55:52.616Z,17.33
2022-10-13T12:58:31.153Z,17.28
2022-10-13T13:01:13.634Z,17.25
2022-10-13T13:03:44.242Z,17.21
2022-10-13T13:06:17.324Z,17.17
2022-10-13T13:08:47.370Z,17.12
2022-10-13T13:11:34.284Z,17.08
2022-10-13T13:14:51.332Z,17.13
2022-10-13T13:17:52.837Z,17.31
2022-10-13T13:20:35.018Z,17.49
2022-10-13T13:23:06.075Z,17.73
2022-10-13T13:25:34.728Z,17.91
2022-10-13T13:28:11.176Z,18.05
2022-10-13T13:30:41.372Z,18.14
2022-10-13T13:35:40.791Z,18.35
2022-10-13T13:38:10.754Z,18.37
2022-10-13T13:40:40.175Z,18.40
2022-10-13T13:43:10.487Z,18.46
2022-10-13T13:45:40.019Z,18.53
2022-10-13T13:48:12.144Z,18.46
2022-10-13T13:50:42.026Z,18.43
2022-10-13T13:53:11.651Z,18.49
2022-10-13T13:55:48.388Z,18.59
2022-10-13T13:58:22.484Z,18.68
2022-10-13T14:00:55.618Z,18.75
2022-10-13T14:03:25.539Z,18.85
2022-10-13T14:05:53.907Z,18.92
2022-10-13T14:08:26.053Z,18.92
2022-10-13T14:10:58.472Z,18.87
2022-10-13T14:13:28.584Z,18.83
2022-10-13T14:15:58.198Z,18.78
2022-10-13T14:18:29.039Z,18.70
2022-10-13T14:20:59.190Z,18.63
2022-10-13T14:23:33.508Z,18.52
2022-10-13T14:26:07.937Z,18.49
2022-10-13T14:28:37.993Z,18.50
2022-10-13T14:31:11.904Z,18.50
2022-10-13T14:33:50.789Z,18.46
2022-10-13T14:36:23.588Z,18.32
2022-10-13T14:38:54.920Z,18.20
2022-10-13T14:41:25.015Z,18.07
2022-10-13T14:43:57.589Z,17.91
2022-10-13T14:46:27.407Z,17.83
2022-10-13T14:48:59.222Z,17.81
2022-10-13T14:51:28.699Z,17.79
2022-10-13T14:53:58.299Z,17.73
2022-10-13T14:56:30.193Z,17.60
2022-10-13T14:59:04.388Z,17.43
2022-10-13T15:01:41.812Z,17.27
2022-10-13T15:04:11.606Z,17.12
2022-10-13T15:06:41.756Z,16.93
2022-10-13T15:09:12.854Z,16.78
2022-10-13T15:11:43.455Z,16.70
2022-10-13T15:14:13.531Z,16.60
2022-10-13T15:16:42.134Z,16.55
2022-10-13T15:19:11.747Z,16.52
2022-10-13T15:21:41.767Z,16.48
2022-10-13T15:24:12.469Z,16.40
2022-10-13T15:26:45.463Z,16.31
2022-10-13T15:29:15.156Z,16.23
2022-10-13T15:31:44.739Z,16.16
2022-10-13T15:34:14.466Z,16.12
2022-10-13T15:36:44.083Z,16.11
2022-10-13T15:39:13.348Z,16.11
2022-10-13T15:41:42.899Z,16.07
2022-10-13T15:44:13.356Z,15.99
2022-10-13T15:46:53.951Z,15.91
2022-10-13T15:49:39.285Z,15.83
2022-10-13T15:52:09.587Z,15.78
2022-10-13T15:54:39.184Z,15.68
2022-10-13T15:57:09.127Z,15.56
2022-10-13T15:59:39.026Z,15.44
2022-10-13T16:02:10.656Z,15.37
2022-10-13T16:04:40.726Z,15.33
2022-10-13T16:07:10.687Z,15.30
2022-10-13T16:09:40.279Z,15.29
2022-10-13T16:12:10.790Z,15.29
2022-10-13T16:14:40.779Z,15.28
2022-10-13T16:17:10.850Z,15.26
2022-10-13T16:19:40.744Z,15.23
2022-10-13T16:22:10.716Z,15.20
2022-10-13T16:24:40.583Z,15.11
2022-10-13T16:27:10.272Z,14.94
2022-10-13T16:29:40.222Z,14.90
2022-10-13T16:32:10.360Z,14.88
2022-10-13T16:34:40.353Z,14.83
2022-10-13T16:37:09.993Z,14.78
2022-10-13T16:39:42.725Z,14.68
2022-10-13T16:42:18.217Z,14.55
2022-10-13T16:44:49.073Z,14.45
2022-10-13T16:47:23.309Z,14.41
2022-10-13T16:49:54.452Z,14.38
2022-10-13T16:52:26.167Z,14.33
2022-10-13T16:55:04.573Z,14.26
2022-10-13T16:57:36.267Z,14.22
2022-10-13T17:00:06.619Z,14.18
2022-10-13T17:02:37.156Z,14.09
2022-10-13T17:05:07.182Z,14.05
2022-10-13T17:07:39.679Z,14.00
2022-10-13T17:10:10.108Z,13.92
2022-10-13T17:12:42.231Z,13.82
2022-10-13T17:15:12.008Z,13.73
2022-10-13T17:17:43.789Z,13.62
2022-10-13T17:20:14.153Z,13.56
2022-10-13T17:22:50.659Z,13.52
2022-10-13T17:25:20.698Z,13.40
2022-10-13T17:27:55.012Z,13.28
2022-10-13T17:30:26.256Z,13.18
2022-10-13T17:32:57.133Z,13.10
2022-10-13T17:35:32.099Z,13.03
2022-10-13T17:38:01.991Z,12.96
2022-10-13T17:40:35.259Z,12.89
2022-10-13T17:43:05.386Z,12.83
2022-10-13T17:45:34.984Z,12.78
2022-10-13T17:48:05.202Z,12.74
2022-10-13T17:50:37.579Z,12.70
2022-10-13T17:53:07.304Z,12.66
2022-10-13T17:55:36.933Z,12.61
2022-10-13T17:58:06.889Z,12.57
2022-10-13T18:01:07.631Z,12.55
2022-10-13T18:03:27.652Z,12.52
2022-10-13T18:05:57.647Z,12.45
2022-10-13T18:08:27.649Z,12.40
2022-10-13T18:11:07.688Z,12.34
2022-10-13T18:13:38.978Z,12.29
2022-10-13T18:16:11.824Z,12.24
2022-10-13T18:18:44.338Z,12.19
2022-10-13T18:21:17.332Z,12.15
2022-10-13T18:23:50.820Z,12.15
2022-10-13T18:26:20.805Z,12.16
2022-10-13T18:28:50.641Z,12.18
2022-10-13T18:31:27.976Z,12.17
2022-10-13T18:34:05.416Z,12.15
2022-10-13T18:36:51.190Z,12.12
2022-10-13T18:39:22.923Z,12.09
2022-10-13T18:41:56.663Z,12.03
2022-10-13T18:44:29.061Z,11.87
2022-10-13T18:46:58.747Z,11.75
2022-10-13T18:49:31.924Z,11.76
2022-10-13T18:52:04.803Z,11.79
2022-10-13T18:54:34.727Z,11.83
2022-10-13T18:57:05.564Z,11.87
2022-10-13T18:59:38.972Z,11.89
2022-10-13T19:02:12.910Z,11.90
2022-10-13T19:04:42.838Z,11.92
2022-10-13T19:07:12.916Z,11.94
2022-10-13T19:09:43.404Z,11.96
2022-10-13T19:12:12.643Z,12.00
2022-10-13T19:14:44.053Z,12.03
2022-10-13T19:17:14.077Z,12.05
2022-10-13T19:19:44.220Z,11.97
2022-10-13T19:22:14.122Z,11.98
2022-10-13T19:24:44.180Z,11.99
2022-10-13T19:27:13.882Z,11.99
2022-10-13T19:29:43.799Z,11.94
2022-10-13T19:32:13.466Z,11.91
2022-10-13T19:34:43.015Z,11.89
2022-10-13T19:37:16.822Z,11.88
2022-10-13T19:39:46.795Z,11.92
2022-10-13T19:42:16.650Z,11.93
2022-10-13T19:44:46.173Z,11.93
2022-10-13T19:47:14.622Z,11.93
2022-10-13T19:49:47.671Z,11.88
2022-10-13T19:52:17.782Z,11.75
2022-10-13T19:54:47.501Z,11.68
2022-10-13T19:57:17.727Z,11.62
2022-10-13T19:59:47.929Z,11.55
2022-10-13T20:02:18.009Z,11.57
2022-10-13T20:04:46.481Z,11.57
2022-10-13T20:07:16.387Z,11.60
2022-10-13T20:09:46.500Z,11.63
2022-10-13T20:12:16.534Z,11.68
2022-10-13T20:14:47.546Z,11.64
2022-10-13T20:17:17.555Z,11.56
2022-10-13T20:19:48.288Z,11.52
2022-10-13T20:22:17.692Z,11.53
2022-10-13T20:24:47.945Z,11.57
2022-10-13T20:27:18.105Z,11.61
2022-10-13T20:29:50.008Z,11.66
2022-10-13T20:32:19.897Z,11.70
2022-10-13T20:34:49.943Z,11.73
2022-10-13T20:37:20.183Z,11.76
2022-10-13T20:39:50.343Z,11.80
2022-10-13T20:42:19.863Z,11.84
2022-10-13T20:44:49.381Z,11.83
2022-10-13T20:47:18.784Z,11.81
2022-10-13T20:49:49.770Z,11.77
2022-10-13T20:52:19.707Z,11.74
2022-10-13T20:54:50.654Z,11.72
2022-10-13T20:57:20.409Z,11.71
2022-10-13T20:59:49.894Z,11.72
2022-10-13T21:02:19.841Z,11.73
2022-10-13T21:04:51.957Z,11.72
2022-10-13T21:07:21.784Z,11.69
2022-10-13T21:09:53.904Z,11.67
2022-10-13T21:12:23.629Z,11.65
2022-10-13T21:14:53.180Z,11.62
2022-10-13T21:17:21.942Z,11.58
2022-10-13T21:19:53.374Z,11.54
2022-10-13T21:22:23.357Z,11.48
2022-10-13T21:24:54.158Z,11.44
2022-10-13T21:27:23.709Z,11.41
2022-10-13T21:29:53.325Z,11.37
2022-10-13T21:32:23.373Z,11.34
2022-10-13T21:34:54.404Z,11.29
2022-10-13T21:37:24.727Z,11.21
2022-10-13T21:39:54.359Z,11.09
2022-10-13T21:42:24.965Z,11.03
2022-10-13T21:44:55.008Z,11.01
2022-10-13T21:47:35.168Z,10.97
2022-10-13T21:50:06.653Z,10.96
2022-10-13T21:52:37.267Z,10.96
2022-10-13T21:55:10.150Z,10.95
2022-10-13T21:57:39.010Z,10.92
2022-10-13T22:00:10.011Z,10.90
2022-10-13T22:02:42.350Z,10.91
2022-10-13T22:05:14.454Z,10.91
2022-10-13T22:07:46.694Z,10.91
2022-10-13T22:10:17.411Z,10.91
2022-10-13T22:12:47.107Z,10.91
2022-10-13T22:15:23.135Z,10.90
2022-10-13T22:17:51.727Z,10.83
2022-10-13T22:20:23.991Z,10.76
2022-10-13T22:22:54.431Z,10.73
2022-10-13T22:25:25.079Z,10.68
2022-10-13T22:27:53.549Z,10.62
2022-10-13T22:30:24.244Z,10.56
2022-10-13T22:32:55.152Z,10.52
2022-10-13T22:35:24.971Z,10.55
2022-10-13T22:37:54.885Z,10.56
2022-10-13T22:40:24.536Z,10.54
2022-10-13T22:42:54.375Z,10.57
2022-10-13T22:45:32.202Z,10.56
2022-10-13T22:48:09.321Z,10.54
2022-10-13T22:50:48.765Z,10.55
2022-10-13T22:53:27.510Z,10.57
2022-10-13T22:55:58.526Z,10.57
2022-10-13T22:58:28.896Z,10.58
2022-10-13T23:01:09.054Z,10.58
2022-10-13T23:03:40.532Z,10.57
2022-10-13T23:06:14.753Z,10.56
2022-10-13T23:08:45.312Z,10.56
2022-10-13T23:11:16.552Z,10.55
2022-10-13T23:13:47.443Z,10.55
2022-10-13T23:16:23.661Z,10.54
2022-10-13T23:18:54.854Z,10.50
2022-10-13T23:21:30.197Z,10.46
2022-10-13T23:24:06.149Z,10.42
2022-10-13T23:26:35.421Z,10.38
2022-10-13T23:29:06.328Z,10.31
2022-10-13T23:31:36.242Z,10.26
2022-10-13T23:34:06.474Z,10.19
2022-10-13T23:36:35.045Z,10.14
2022-10-13T23:39:10.866Z,10.10
2022-10-13T23:41:42.791Z,10.10
2022-10-13T23:44:14.019Z,10.10
2022-10-13T23:46:44.195Z,10.09
2022-10-13T23:49:17.377Z,10.05
2022-10-13T23:51:47.814Z,9.99
2022-10-13T23:54:18.345Z,9.94
2022-10-13T23:56:46.824Z,9.90
2022-10-13T23:59:16.954Z,9.86
